createdAt,value
2024-03-01T00:04:03.782Z,5.84
2024-03-01T00:19:09.260Z,5.92
2024-03-01T00:34:14.757Z,6.19
2024-03-01T00:49:20.278Z,6.36
2024-03-01T01:04:25.903Z,6.64
2024-03-01T01:19:31.463Z,6.71
2024-03-01T01:34:37.235Z,6.59
2024-03-01T01:49:42.920Z,6.57
2024-03-01T02:04:48.584Z,6.64
2024-03-01T02:19:54.044Z,6.65
2024-03-01T02:34:59.676Z,6.70
2024-03-01T02:50:09.700Z,6.69
2024-03-01T03:05:15.418Z,6.63
2024-03-01T03:20:20.949Z,6.68
2024-03-01T03:35:26.333Z,6.73
2024-03-01T03:50:31.650Z,6.63
2024-03-01T04:05:37.615Z,6.66
2024-03-01T04:20:43.058Z,6.74
2024-03-01T04:35:48.499Z,6.74
2024-03-01T04:50:54.708Z,6.72
2024-03-01T05:06:00.657Z,6.35
2024-03-01T05:21:06.477Z,6.64
2024-03-01T05:36:12.641Z,6.66
2024-03-01T05:51:18.241Z,6.72
2024-03-01T06:06:23.859Z,6.79
2024-03-01T06:21:29.336Z,6.82
2024-03-01T06:36:34.815Z,6.91
2024-03-01T06:51:40.325Z,7.00
2024-03-01T07:06:45.692Z,7.04
2024-03-01T07:21:51.149Z,7.13
2024-03-01T07:36:56.640Z,7.32
2024-03-01T07:52:03.117Z,7.73
2024-03-01T08:07:11.081Z,8.12
2024-03-01T08:22:18.859Z,8.37
2024-03-01T08:37:26.928Z,8.21
2024-03-01T08:52:36.398Z,7.93
2024-03-01T09:07:42.112Z,8.03
2024-03-01T09:22:48.126Z,8.22
2024-03-01T09:37:53.668Z,8.09
2024-03-01T09:53:16.972Z,8.06
2024-03-01T10:08:29.816Z,8.03
2024-03-01T10:23:50.457Z,8.24
2024-03-01T10:39:05.915Z,8.49
2024-03-01T10:54:14.690Z,8.91
2024-03-01T11:09:24.745Z,8.91
2024-03-01T11:24:32.729Z,9.70
2024-03-01T11:39:52.837Z,9.33
2024-03-01T11:55:11.013Z,9.40
2024-03-01T12:10:27.470Z,9.50
2024-03-01T12:25:33.235Z,9.07
2024-03-01T12:40:43.946Z,9.32
2024-03-01T12:56:00.052Z,9.30
2024-03-01T13:11:07.595Z,9.32
2024-03-01T13:26:30.930Z,9.66
2024-03-01T13:41:39.650Z,10.65
2024-03-01T13:56:46.842Z,11.04
2024-03-01T14:11:52.989Z,11.72
2024-03-01T14:26:59.028Z,11.64
2024-03-01T14:42:04.716Z,11.40
2024-03-01T14:57:10.204Z,12.41
2024-03-01T15:12:16.094Z,11.28
2024-03-01T15:27:27.862Z,10.78
2024-03-01T15:42:33.430Z,10.53
2024-03-01T15:57:40.429Z,10.19
2024-03-01T16:12:52.972Z,10.11
2024-03-01T16:27:58.537Z,9.63
2024-03-01T16:43:04.912Z,9.50
2024-03-01T16:58:12.832Z,8.97
2024-03-01T17:13:25.863Z,8.51
2024-03-01T17:28:31.501Z,8.21
2024-03-01T17:43:37.065Z,8.04
2024-03-01T17:58:42.775Z,7.87
2024-03-01T18:13:48.421Z,7.73
2024-03-01T18:28:53.935Z,7.69
2024-03-01T18:43:59.714Z,7.72
2024-03-01T18:59:05.947Z,7.71
2024-03-01T19:14:11.794Z,7.60
2024-03-01T19:29:18.707Z,7.50
2024-03-01T19:44:29.459Z,7.30
2024-03-01T19:59:36.584Z,7.16
2024-03-01T20:14:42.073Z,7.04
2024-03-01T20:29:47.495Z,7.01
2024-03-01T20:44:53.287Z,6.84
2024-03-01T20:59:59.609Z,6.85
2024-03-01T21:15:10.059Z,6.84
2024-03-01T21:30:15.683Z,6.63
2024-03-01T21:45:21.172Z,6.27
2024-03-01T22:00:26.632Z,6.35
2024-03-01T22:15:32.123Z,6.13
2024-03-01T22:30:37.814Z,5.96
2024-03-01T22:45:43.898Z,6.11
2024-03-01T23:00:50.925Z,5.20
2024-03-01T23:15:56.803Z,4.69
2024-03-01T23:31:04.106Z,4.29
2024-03-01T23:46:09.581Z,4.19
